sensor_id;sensor_type;location;lat;lon;timestamp;temperature;humidity
23116;DHT22;11727;52.134;5.052;2024-03-02T00:00:00;8.60;99.90
23116;DHT22;11727;52.134;5.052;2024-03-02T00:02:28;8.60;99.90
23116;DHT22;11727;52.134;5.052;2024-03-02T00:04:54;8.60;99.90
23116;DHT22;11727;52.134;5.052;2024-03-02T00:07:19;8.50;99.90
23116;DHT22;11727;52.134;5.052;2024-03-02T00:09:44;8.40;99.90
23116;DHT22;11727;52.134;5.052;2024-03-02T00:12:11;8.20;99.90
23116;DHT22;11727;52.134;5.052;2024-03-02T00:14:41;8.10;99.90
23116;DHT22;11727;52.134;5.052;2024-03-02T00:17:08;7.90;99.90
23116;DHT22;11727;52.134;5.052;2024-03-02T00:19:44;7.80;99.90
23116;DHT22;11727;52.134;5.052;2024-03-02T00:22:09;7.60;99.90
23116;DHT22;11727;52.134;5.052;2024-03-02T00:24:35;7.50;99.90
23116;DHT22;11727;52.134;5.052;2024-03-02T00:27:01;7.40;99.90
23116;DHT22;11727;52.134;5.052;2024-03-02T00:29:28;7.30;99.90
23116;DHT22;11727;52.134;5.052;2024-03-02T00:31:54;7.20;99.90
23116;DHT22;11727;52.134;5.052;2024-03-02T00:34:21;7.20;99.90
23116;DHT22;11727;52.134;5.052;2024-03-02T00:36:46;7.10;99.90
23116;DHT22;11727;52.134;5.052;2024-03-02T00:39:14;7.00;99.90
23116;DHT22;11727;52.134;5.052;2024-03-02T00:41:40;6.90;99.90
23116;DHT22;11727;52.134;5.052;2024-03-02T00:44:07;6.90;99.90
23116;DHT22;11727;52.134;5.052;2024-03-02T00:46:38;6.90;99.90
23116;DHT22;11727;52.134;5.052;2024-03-02T00:51:38;6.80;99.90
23116;DHT22;11727;52.134;5.052;2024-03-02T00:54:05;6.80;99.90
23116;DHT22;11727;52.134;5.052;2024-03-02T00:56:31;6.70;99.90
23116;DHT22;11727;52.134;5.052;2024-03-02T00:58:56;6.70;99.90
23116;DHT22;11727;52.134;5.052;2024-03-02T01:01:23;6.70;99.90
23116;DHT22;11727;52.134;5.052;2024-03-02T01:03:48;6.70;99.90
23116;DHT22;11727;52.134;5.052;2024-03-02T01:06:14;6.70;99.90
23116;DHT22;11727;52.134;5.052;2024-03-02T01:08:41;6.70;99.90
23116;DHT22;11727;52.134;5.052;2024-03-02T01:11:06;6.70;99.90
23116;DHT22;11727;52.134;5.052;2024-03-02T01:13:32;6.60;99.90
23116;DHT22;11727;52.134;5.052;2024-03-02T01:15:57;6.60;99.90
23116;DHT22;11727;52.134;5.052;2024-03-02T01:18:23;6.60;99.90
23116;DHT22;11727;52.134;5.052;2024-03-02T01:20:49;6.60;99.90
23116;DHT22;11727;52.134;5.052;2024-03-02T01:23:20;6.60;99.90
23116;DHT22;11727;52.134;5.052;2024-03-02T01:25:46;6.60;99.90
23116;DHT22;11727;52.134;5.052;2024-03-02T01:28:12;6.60;99.90
23116;DHT22;11727;52.134;5.052;2024-03-02T01:30:38;6.60;99.90
23116;DHT22;11727;52.134;5.052;2024-03-02T01:33:03;6.60;99.90
23116;DHT22;11727;52.134;5.052;2024-03-02T01:35:31;6.60;99.90
23116;DHT22;11727;52.134;5.052;2024-03-02T01:37:56;6.60;99.90
23116;DHT22;11727;52.134;5.052;2024-03-02T01:40:22;6.60;99.90
23116;DHT22;11727;52.134;5.052;2024-03-02T01:42:51;6.60;99.90
23116;DHT22;11727;52.134;5.052;2024-03-02T01:45:17;6.60;99.90
23116;DHT22;11727;52.134;5.052;2024-03-02T01:47:43;6.60;99.90
23116;DHT22;11727;52.134;5.052;2024-03-02T01:50:09;6.60;99.90
23116;DHT22;11727;52.134;5.052;2024-03-02T01:52:36;6.60;99.90
23116;DHT22;11727;52.134;5.052;2024-03-02T01:55:02;6.60;99.90
23116;DHT22;11727;52.134;5.052;2024-03-02T01:57:29;6.60;99.90
23116;DHT22;11727;52.134;5.052;2024-03-02T01:59:54;6.60;99.90
23116;DHT22;11727;52.134;5.052;2024-03-02T02:02:20;6.60;99.90
23116;DHT22;11727;52.134;5.052;2024-03-02T02:04:45;6.50;99.90
23116;DHT22;11727;52.134;5.052;2024-03-02T02:07:11;6.50;99.90
23116;DHT22;11727;52.134;5.052;2024-03-02T02:09:37;6.50;99.90
23116;DHT22;11727;52.134;5.052;2024-03-02T02:12:02;6.50;99.90
23116;DHT22;11727;52.134;5.052;2024-03-02T02:14:30;6.40;99.90
23116;DHT22;11727;52.134;5.052;2024-03-02T02:16:55;6.40;99.90
23116;DHT22;11727;52.134;5.052;2024-03-02T02:19:21;6.40;99.90
23116;DHT22;11727;52.134;5.052;2024-03-02T02:21:46;6.40;99.90
23116;DHT22;11727;52.134;5.052;2024-03-02T02:24:12;6.40;99.90
23116;DHT22;11727;52.134;5.052;2024-03-02T02:26:38;6.40;99.90
23116;DHT22;11727;52.134;5.052;2024-03-02T02:29:04;6.40;99.90
23116;DHT22;11727;52.134;5.052;2024-03-02T02:31:38;6.40;99.90
23116;DHT22;11727;52.134;5.052;2024-03-02T02:34:04;6.30;99.90
23116;DHT22;11727;52.134;5.052;2024-03-02T02:36:30;6.30;99.90
23116;DHT22;11727;52.134;5.052;2024-03-02T02:38:56;6.30;99.90
23116;DHT22;11727;52.134;5.052;2024-03-02T02:41:21;6.30;99.90
23116;DHT22;11727;52.134;5.052;2024-03-02T02:43:47;6.20;99.90
23116;DHT22;11727;52.134;5.052;2024-03-02T02:46:12;6.30;99.90
23116;DHT22;11727;52.134;5.052;2024-03-02T02:48:38;6.30;99.90
23116;DHT22;11727;52.134;5.052;2024-03-02T02:51:03;6.30;99.90
23116;DHT22;11727;52.134;5.052;2024-03-02T02:53:29;6.30;99.90
23116;DHT22;11727;52.134;5.052;2024-03-02T02:55:54;6.30;99.90
23116;DHT22;11727;52.134;5.052;2024-03-02T02:58:20;6.30;99.90
23116;DHT22;11727;52.134;5.052;2024-03-02T03:00:45;6.30;99.90
23116;DHT22;11727;52.134;5.052;2024-03-02T03:03:11;6.30;99.90
23116;DHT22;11727;52.134;5.052;2024-03-02T03:05:36;6.30;99.90
23116;DHT22;11727;52.134;5.052;2024-03-02T03:08:02;6.40;99.90
23116;DHT22;11727;52.134;5.052;2024-03-02T03:10:28;6.30;99.90
23116;DHT22;11727;52.134;5.052;2024-03-02T03:12:53;6.30;99.90
23116;DHT22;11727;52.134;5.052;2024-03-02T03:15:21;6.30;99.90
23116;DHT22;11727;52.134;5.052;2024-03-02T03:17:46;6.30;99.90
23116;DHT22;11727;52.134;5.052;2024-03-02T03:20:12;6.30;99.90
23116;DHT22;11727;52.134;5.052;2024-03-02T03:22:38;6.30;99.90
23116;DHT22;11727;52.134;5.052;2024-03-02T03:25:04;6.20;99.90
23116;DHT22;11727;52.134;5.052;2024-03-02T03:27:30;6.20;99.90
23116;DHT22;11727;52.134;5.052;2024-03-02T03:29:55;6.20;99.90
23116;DHT22;11727;52.134;5.052;2024-03-02T03:32:21;6.20;99.90
23116;DHT22;11727;52.134;5.052;2024-03-02T03:34:46;6.20;99.90
23116;DHT22;11727;52.134;5.052;2024-03-02T03:37:13;6.20;99.90
23116;DHT22;11727;52.134;5.052;2024-03-02T03:39:38;6.20;99.90
23116;DHT22;11727;52.134;5.052;2024-03-02T03:42:04;6.20;99.90
23116;DHT22;11727;52.134;5.052;2024-03-02T03:44:29;6.20;99.90
23116;DHT22;11727;52.134;5.052;2024-03-02T03:46:55;6.20;99.90
23116;DHT22;11727;52.134;5.052;2024-03-02T03:49:21;6.30;99.90
23116;DHT22;11727;52.134;5.052;2024-03-02T03:51:46;6.30;99.90
23116;DHT22;11727;52.134;5.052;2024-03-02T03:54:11;6.30;99.90
23116;DHT22;11727;52.134;5.052;2024-03-02T03:56:37;6.30;99.90
23116;DHT22;11727;52.134;5.052;2024-03-02T03:59:03;6.40;99.90
23116;DHT22;11727;52.134;5.052;2024-03-02T04:01:30;6.40;99.90
23116;DHT22;11727;52.134;5.052;2024-03-02T04:03:55;6.40;99.90
23116;DHT22;11727;52.134;5.052;2024-03-02T04:06:21;6.40;99.90
23116;DHT22;11727;52.134;5.052;2024-03-02T04:08:46;6.40;99.90
23116;DHT22;11727;52.134;5.052;2024-03-02T04:11:12;6.40;99.90
23116;DHT22;11727;52.134;5.052;2024-03-02T04:13:37;6.40;99.90
23116;DHT22;11727;52.134;5.052;2024-03-02T04:16:03;6.40;99.90
23116;DHT22;11727;52.134;5.052;2024-03-02T04:18:30;6.40;99.90
23116;DHT22;11727;52.134;5.052;2024-03-02T04:20:56;6.40;99.90
23116;DHT22;11727;52.134;5.052;2024-03-02T04:23:21;6.40;99.90
23116;DHT22;11727;52.134;5.052;2024-03-02T04:25:47;6.40;99.90
23116;DHT22;11727;52.134;5.052;2024-03-02T04:28:12;6.40;99.90
23116;DHT22;11727;52.134;5.052;2024-03-02T04:30:38;6.30;99.90
23116;DHT22;11727;52.134;5.052;2024-03-02T04:33:03;6.30;99.90
23116;DHT22;11727;52.134;5.052;2024-03-02T04:35:31;6.20;99.90
23116;DHT22;11727;52.134;5.052;2024-03-02T04:37:56;6.20;99.90
23116;DHT22;11727;52.134;5.052;2024-03-02T04:40:21;6.20;99.90
23116;DHT22;11727;52.134;5.052;2024-03-02T04:42:47;6.20;99.90
23116;DHT22;11727;52.134;5.052;2024-03-02T04:45:12;6.10;99.90
23116;DHT22;11727;52.134;5.052;2024-03-02T04:47:38;6.10;99.90
23116;DHT22;11727;52.134;5.052;2024-03-02T04:50:04;6.10;99.90
23116;DHT22;11727;52.134;5.052;2024-03-02T04:52:30;6.00;99.90
23116;DHT22;11727;52.134;5.052;2024-03-02T04:54:55;6.00;99.90
23116;DHT22;11727;52.134;5.052;2024-03-02T04:57:39;6.00;99.90
23116;DHT22;11727;52.134;5.052;2024-03-02T05:00:05;6.00;99.90
23116;DHT22;11727;52.134;5.052;2024-03-02T05:02:34;6.00;99.90
23116;DHT22;11727;52.134;5.052;2024-03-02T05:04:59;6.00;99.90
23116;DHT22;11727;52.134;5.052;2024-03-02T05:07:25;5.90;99.90
23116;DHT22;11727;52.134;5.052;2024-03-02T05:09:50;5.90;99.90
23116;DHT22;11727;52.134;5.052;2024-03-02T05:12:16;5.90;99.90
23116;DHT22;11727;52.134;5.052;2024-03-02T05:15:00;5.90;99.90
23116;DHT22;11727;52.134;5.052;2024-03-02T05:17:27;5.90;99.90
23116;DHT22;11727;52.134;5.052;2024-03-02T05:19:52;5.90;99.90
23116;DHT22;11727;52.134;5.052;2024-03-02T05:22:18;5.90;99.90
23116;DHT22;11727;52.134;5.052;2024-03-02T05:24:43;5.80;99.90
23116;DHT22;11727;52.134;5.052;2024-03-02T05:27:09;5.80;99.90
23116;DHT22;11727;52.134;5.052;2024-03-02T05:29:34;5.80;99.90
23116;DHT22;11727;52.134;5.052;2024-03-02T05:32:00;5.80;99.90
23116;DHT22;11727;52.134;5.052;2024-03-02T05:34:25;5.80;99.90
23116;DHT22;11727;52.134;5.052;2024-03-02T05:36:51;5.80;99.90
23116;DHT22;11727;52.134;5.052;2024-03-02T05:39:16;5.70;99.90
23116;DHT22;11727;52.134;5.052;2024-03-02T05:41:42;5.70;99.90
23116;DHT22;11727;52.134;5.052;2024-03-02T05:44:07;5.70;99.90
23116;DHT22;11727;52.134;5.052;2024-03-02T05:46:33;5.70;99.90
23116;DHT22;11727;52.134;5.052;2024-03-02T05:48:59;5.70;99.90
23116;DHT22;11727;52.134;5.052;2024-03-02T05:51:25;5.70;99.90
23116;DHT22;11727;52.134;5.052;2024-03-02T05:53:50;5.70;99.90
23116;DHT22;11727;52.134;5.052;2024-03-02T05:56:16;5.70;99.90
23116;DHT22;11727;52.134;5.052;2024-03-02T05:58:42;5.70;99.90
23116;DHT22;11727;52.134;5.052;2024-03-02T06:01:26;5.70;99.90
23116;DHT22;11727;52.134;5.052;2024-03-02T06:03:56;5.70;99.90
23116;DHT22;11727;52.134;5.052;2024-03-02T06:06:22;5.80;99.90
23116;DHT22;11727;52.134;5.052;2024-03-02T06:08:48;5.80;99.90
23116;DHT22;11727;52.134;5.052;2024-03-02T06:11:13;5.90;99.90
23116;DHT22;11727;52.134;5.052;2024-03-02T06:13:39;5.90;99.90
23116;DHT22;11727;52.134;5.052;2024-03-02T06:16:04;5.90;99.90
23116;DHT22;11727;52.134;5.052;2024-03-02T06:18:30;6.00;99.90
23116;DHT22;11727;52.134;5.052;2024-03-02T06:20:56;6.00;99.90
23116;DHT22;11727;52.134;5.052;2024-03-02T06:23:21;6.00;99.90
23116;DHT22;11727;52.134;5.052;2024-03-02T06:25:46;6.00;99.90
23116;DHT22;11727;52.134;5.052;2024-03-02T06:28:12;6.00;99.90
23116;DHT22;11727;52.134;5.052;2024-03-02T06:30:41;6.00;99.90
23116;DHT22;11727;52.134;5.052;2024-03-02T06:33:06;5.90;99.90
23116;DHT22;11727;52.134;5.052;2024-03-02T06:35:32;5.90;99.90
23116;DHT22;11727;52.134;5.052;2024-03-02T06:37:57;6.00;99.90
23116;DHT22;11727;52.134;5.052;2024-03-02T06:40:23;6.00;99.90
23116;DHT22;11727;52.134;5.052;2024-03-02T06:42:48;6.00;99.90
23116;DHT22;11727;52.134;5.052;2024-03-02T06:45:14;6.10;99.90
23116;DHT22;11727;52.134;5.052;2024-03-02T06:47:39;6.10;99.90
23116;DHT22;11727;52.134;5.052;2024-03-02T06:50:05;6.10;99.90
23116;DHT22;11727;52.134;5.052;2024-03-02T06:52:32;6.10;99.90
23116;DHT22;11727;52.134;5.052;2024-03-02T06:54:57;6.10;99.90
23116;DHT22;11727;52.134;5.052;2024-03-02T06:57:23;6.10;99.90
23116;DHT22;11727;52.134;5.052;2024-03-02T06:59:50;6.10;99.90
23116;DHT22;11727;52.134;5.052;2024-03-02T07:02:16;6.20;99.90
23116;DHT22;11727;52.134;5.052;2024-03-02T07:04:42;6.20;99.90
23116;DHT22;11727;52.134;5.052;2024-03-02T07:07:07;6.20;99.90
23116;DHT22;11727;52.134;5.052;2024-03-02T07:09:33;6.20;99.90
23116;DHT22;11727;52.134;5.052;2024-03-02T07:11:59;6.20;99.90
23116;DHT22;11727;52.134;5.052;2024-03-02T07:14:24;6.30;99.90
23116;DHT22;11727;52.134;5.052;2024-03-02T07:17:09;6.40;99.90
23116;DHT22;11727;52.134;5.052;2024-03-02T07:19:35;6.50;99.90
23116;DHT22;11727;52.134;5.052;2024-03-02T07:22:01;6.50;99.90
23116;DHT22;11727;52.134;5.052;2024-03-02T07:24:27;6.70;99.90
23116;DHT22;11727;52.134;5.052;2024-03-02T07:26:52;6.90;99.90
23116;DHT22;11727;52.134;5.052;2024-03-02T07:29:18;6.90;99.90
23116;DHT22;11727;52.134;5.052;2024-03-02T07:31:43;6.90;99.90
23116;DHT22;11727;52.134;5.052;2024-03-02T07:34:12;6.90;99.90
23116;DHT22;11727;52.134;5.052;2024-03-02T07:36:37;6.90;99.90
23116;DHT22;11727;52.134;5.052;2024-03-02T07:39:04;6.90;99.90
23116;DHT22;11727;52.134;5.052;2024-03-02T07:41:29;6.80;99.90
23116;DHT22;11727;52.134;5.052;2024-03-02T07:43:55;6.80;99.90
23116;DHT22;11727;52.134;5.052;2024-03-02T07:46:20;6.80;99.90
23116;DHT22;11727;52.134;5.052;2024-03-02T07:48:46;6.80;99.90
23116;DHT22;11727;52.134;5.052;2024-03-02T07:51:13;6.80;99.90
23116;DHT22;11727;52.134;5.052;2024-03-02T07:53:39;6.80;99.90
23116;DHT22;11727;52.134;5.052;2024-03-02T07:56:05;6.80;99.90
23116;DHT22;11727;52.134;5.052;2024-03-02T07:58:31;6.80;99.90
23116;DHT22;11727;52.134;5.052;2024-03-02T08:00:56;6.80;99.90
23116;DHT22;11727;52.134;5.052;2024-03-02T08:03:22;6.90;99.90
23116;DHT22;11727;52.134;5.052;2024-03-02T08:05:48;7.00;99.90
23116;DHT22;11727;52.134;5.052;2024-03-02T08:08:13;7.10;99.90
23116;DHT22;11727;52.134;5.052;2024-03-02T08:10:39;7.20;99.90
23116;DHT22;11727;52.134;5.052;2024-03-02T08:13:04;7.30;99.90
23116;DHT22;11727;52.134;5.052;2024-03-02T08:15:30;7.50;99.90
23116;DHT22;11727;52.134;5.052;2024-03-02T08:17:55;7.60;99.90
23116;DHT22;11727;52.134;5.052;2024-03-02T08:20:21;7.70;99.90
23116;DHT22;11727;52.134;5.052;2024-03-02T08:22:47;7.80;99.90
23116;DHT22;11727;52.134;5.052;2024-03-02T08:25:12;7.80;99.90
23116;DHT22;11727;52.134;5.052;2024-03-02T08:27:39;7.80;99.90
23116;DHT22;11727;52.134;5.052;2024-03-02T08:30:05;7.90;99.90
23116;DHT22;11727;52.134;5.052;2024-03-02T08:32:31;8.00;99.90
23116;DHT22;11727;52.134;5.052;2024-03-02T08:34:57;8.10;99.90
23116;DHT22;11727;52.134;5.052;2024-03-02T08:37:22;8.10;99.90
23116;DHT22;11727;52.134;5.052;2024-03-02T08:39:48;8.20;99.90
23116;DHT22;11727;52.134;5.052;2024-03-02T08:42:15;8.40;99.90
23116;DHT22;11727;52.134;5.052;2024-03-02T08:44:40;8.40;99.90
23116;DHT22;11727;52.134;5.052;2024-03-02T08:47:06;8.40;99.90
23116;DHT22;11727;52.134;5.052;2024-03-02T08:49:31;8.50;99.90
23116;DHT22;11727;52.134;5.052;2024-03-02T08:51:57;8.60;99.90
23116;DHT22;11727;52.134;5.052;2024-03-02T08:54:22;8.60;99.90
23116;DHT22;11727;52.134;5.052;2024-03-02T08:56:48;8.60;99.90
23116;DHT22;11727;52.134;5.052;2024-03-02T08:59:14;8.50;99.90
23116;DHT22;11727;52.134;5.052;2024-03-02T09:01:39;8.50;99.90
23116;DHT22;11727;52.134;5.052;2024-03-02T09:04:07;8.50;99.90
23116;DHT22;11727;52.134;5.052;2024-03-02T09:06:34;8.40;99.90
23116;DHT22;11727;52.134;5.052;2024-03-02T09:08:59;8.40;99.90
23116;DHT22;11727;52.134;5.052;2024-03-02T09:11:25;8.40;99.90
23116;DHT22;11727;52.134;5.052;2024-03-02T09:13:50;8.40;99.90
23116;DHT22;11727;52.134;5.052;2024-03-02T09:16:16;8.40;99.90
23116;DHT22;11727;52.134;5.052;2024-03-02T09:18:42;8.40;99.90
23116;DHT22;11727;52.134;5.052;2024-03-02T09:21:07;8.40;99.90
23116;DHT22;11727;52.134;5.052;2024-03-02T09:23:33;8.40;99.90
23116;DHT22;11727;52.134;5.052;2024-03-02T09:25:59;8.50;99.90
23116;DHT22;11727;52.134;5.052;2024-03-02T09:28:25;8.50;99.90
23116;DHT22;11727;52.134;5.052;2024-03-02T09:30:50;8.60;99.90
23116;DHT22;11727;52.134;5.052;2024-03-02T09:33:16;8.60;99.90
23116;DHT22;11727;52.134;5.052;2024-03-02T09:35:42;8.70;99.90
23116;DHT22;11727;52.134;5.052;2024-03-02T09:38:07;8.70;99.90
23116;DHT22;11727;52.134;5.052;2024-03-02T09:40:33;8.80;99.90
23116;DHT22;11727;52.134;5.052;2024-03-02T09:42:58;8.80;99.90
23116;DHT22;11727;52.134;5.052;2024-03-02T09:45:24;9.00;99.90
23116;DHT22;11727;52.134;5.052;2024-03-02T09:47:50;9.10;99.90
23116;DHT22;11727;52.134;5.052;2024-03-02T09:50:16;9.20;99.90
23116;DHT22;11727;52.134;5.052;2024-03-02T09:52:42;9.40;99.90
23116;DHT22;11727;52.134;5.052;2024-03-02T09:55:08;9.50;99.90
23116;DHT22;11727;52.134;5.052;2024-03-02T09:57:33;9.70;99.90
23116;DHT22;11727;52.134;5.052;2024-03-02T09:59:59;9.80;99.90
23116;DHT22;11727;52.134;5.052;2024-03-02T10:02:24;10.00;99.90
23116;DHT22;11727;52.134;5.052;2024-03-02T10:04:50;10.10;99.90
23116;DHT22;11727;52.134;5.052;2024-03-02T10:07:16;10.30;99.90
23116;DHT22;11727;52.134;5.052;2024-03-02T10:09:42;10.50;99.90
23116;DHT22;11727;52.134;5.052;2024-03-02T10:12:08;10.70;99.90
23116;DHT22;11727;52.134;5.052;2024-03-02T10:14:34;10.90;99.90
23116;DHT22;11727;52.134;5.052;2024-03-02T10:17:05;11.10;99.90
23116;DHT22;11727;52.134;5.052;2024-03-02T10:19:31;11.20;99.90
23116;DHT22;11727;52.134;5.052;2024-03-02T10:21:58;11.30;99.90
23116;DHT22;11727;52.134;5.052;2024-03-02T10:24:24;11.40;99.90
23116;DHT22;11727;52.134;5.052;2024-03-02T10:26:51;11.40;99.90
23116;DHT22;11727;52.134;5.052;2024-03-02T10:29:16;11.60;99.90
23116;DHT22;11727;52.134;5.052;2024-03-02T10:31:46;11.60;99.90
23116;DHT22;11727;52.134;5.052;2024-03-02T10:34:12;11.70;99.90
23116;DHT22;11727;52.134;5.052;2024-03-02T10:36:40;11.80;99.90
23116;DHT22;11727;52.134;5.052;2024-03-02T10:39:06;11.80;99.90
23116;DHT22;11727;52.134;5.052;2024-03-02T10:41:33;11.80;99.90
23116;DHT22;11727;52.134;5.052;2024-03-02T10:44:01;11.90;99.90
23116;DHT22;11727;52.134;5.052;2024-03-02T10:46:28;11.90;99.90
23116;DHT22;11727;52.134;5.052;2024-03-02T10:49:01;11.90;99.90
23116;DHT22;11727;52.134;5.052;2024-03-02T10:54:47;12.30;99.90
23116;DHT22;11727;52.134;5.052;2024-03-02T10:57:13;12.40;99.90
23116;DHT22;11727;52.134;5.052;2024-03-02T10:59:44;12.50;99.90
23116;DHT22;11727;52.134;5.052;2024-03-02T11:02:14;12.50;99.90
23116;DHT22;11727;52.134;5.052;2024-03-02T11:04:47;12.50;99.90
23116;DHT22;11727;52.134;5.052;2024-03-02T11:07:19;12.60;99.90
23116;DHT22;11727;52.134;5.052;2024-03-02T11:09:52;12.80;99.90
23116;DHT22;11727;52.134;5.052;2024-03-02T11:12:19;12.80;99.90
23116;DHT22;11727;52.134;5.052;2024-03-02T11:14:48;12.90;99.90
23116;DHT22;11727;52.134;5.052;2024-03-02T11:17:17;13.00;99.90
23116;DHT22;11727;52.134;5.052;2024-03-02T11:19:43;13.10;99.90
23116;DHT22;11727;52.134;5.052;2024-03-02T11:22:09;13.10;99.90
23116;DHT22;11727;52.134;5.052;2024-03-02T11:24:35;13.10;99.90
23116;DHT22;11727;52.134;5.052;2024-03-02T11:27:02;13.30;99.90
23116;DHT22;11727;52.134;5.052;2024-03-02T11:32:15;13.50;99.90
23116;DHT22;11727;52.134;5.052;2024-03-02T11:34:41;13.50;99.90
23116;DHT22;11727;52.134;5.052;2024-03-02T11:37:15;13.60;99.90
23116;DHT22;11727;52.134;5.052;2024-03-02T11:39:41;13.60;99.90
23116;DHT22;11727;52.134;5.052;2024-03-02T11:42:08;13.60;99.90
23116;DHT22;11727;52.134;5.052;2024-03-02T11:44:36;13.60;99.90
23116;DHT22;11727;52.134;5.052;2024-03-02T11:47:06;13.50;99.90
23116;DHT22;11727;52.134;5.052;2024-03-02T11:49:36;13.50;99.90
23116;DHT22;11727;52.134;5.052;2024-03-02T11:52:03;13.50;99.90
23116;DHT22;11727;52.134;5.052;2024-03-02T11:54:29;13.30;99.90
23116;DHT22;11727;52.134;5.052;2024-03-02T11:56:55;13.30;99.90
23116;DHT22;11727;52.134;5.052;2024-03-02T11:59:21;13.40;99.90
23116;DHT22;11727;52.134;5.052;2024-03-02T12:01:47;13.30;99.90
23116;DHT22;11727;52.134;5.052;2024-03-02T12:04:13;13.30;99.90
23116;DHT22;11727;52.134;5.052;2024-03-02T12:06:39;13.20;99.90
23116;DHT22;11727;52.134;5.052;2024-03-02T12:09:04;13.30;99.90
23116;DHT22;11727;52.134;5.052;2024-03-02T12:11:30;13.20;99.90
23116;DHT22;11727;52.134;5.052;2024-03-02T12:13:55;13.00;99.90
23116;DHT22;11727;52.134;5.052;2024-03-02T12:16:23;13.00;99.90
23116;DHT22;11727;52.134;5.052;2024-03-02T12:18:48;13.00;99.90
23116;DHT22;11727;52.134;5.052;2024-03-02T12:21:14;13.00;99.90
23116;DHT22;11727;52.134;5.052;2024-03-02T12:23:40;13.00;99.90
23116;DHT22;11727;52.134;5.052;2024-03-02T12:26:05;13.00;99.90
23116;DHT22;11727;52.134;5.052;2024-03-02T12:28:32;13.20;99.90
23116;DHT22;11727;52.134;5.052;2024-03-02T12:30:57;13.20;99.90
23116;DHT22;11727;52.134;5.052;2024-03-02T12:33:23;13.00;99.90
23116;DHT22;11727;52.134;5.052;2024-03-02T12:35:49;13.00;99.90
23116;DHT22;11727;52.134;5.052;2024-03-02T12:38:14;13.00;99.90
23116;DHT22;11727;52.134;5.052;2024-03-02T12:40:40;13.10;99.90
23116;DHT22;11727;52.134;5.052;2024-03-02T12:43:05;13.10;99.90
23116;DHT22;11727;52.134;5.052;2024-03-02T12:45:32;13.10;99.90
23116;DHT22;11727;52.134;5.052;2024-03-02T12:47:57;13.10;99.90
23116;DHT22;11727;52.134;5.052;2024-03-02T12:50:25;13.20;99.90
23116;DHT22;11727;52.134;5.052;2024-03-02T12:52:54;13.40;99.90
23116;DHT22;11727;52.134;5.052;2024-03-02T12:55:20;13.50;99.90
23116;DHT22;11727;52.134;5.052;2024-03-02T12:57:46;13.40;99.90
23116;DHT22;11727;52.134;5.052;2024-03-02T13:00:11;13.50;99.90
23116;DHT22;11727;52.134;5.052;2024-03-02T13:02:41;13.60;99.90
23116;DHT22;11727;52.134;5.052;2024-03-02T13:05:07;13.70;99.90
23116;DHT22;11727;52.134;5.052;2024-03-02T13:07:36;13.70;99.90
23116;DHT22;11727;52.134;5.052;2024-03-02T13:10:02;13.70;99.90
23116;DHT22;11727;52.134;5.052;2024-03-02T13:12:28;13.80;99.90
23116;DHT22;11727;52.134;5.052;2024-03-02T13:14:55;13.80;99.90
23116;DHT22;11727;52.134;5.052;2024-03-02T13:17:20;13.80;99.90
23116;DHT22;11727;52.134;5.052;2024-03-02T13:22:18;13.90;99.90
23116;DHT22;11727;52.134;5.052;2024-03-02T13:24:44;14.10;99.90
23116;DHT22;11727;52.134;5.052;2024-03-02T13:27:09;14.10;99.90
23116;DHT22;11727;52.134;5.052;2024-03-02T13:29:35;14.10;99.90
23116;DHT22;11727;52.134;5.052;2024-03-02T13:32:02;14.10;99.90
23116;DHT22;11727;52.134;5.052;2024-03-02T13:34:28;14.20;99.90
23116;DHT22;11727;52.134;5.052;2024-03-02T13:36:53;14.30;99.90
23116;DHT22;11727;52.134;5.052;2024-03-02T13:39:19;14.20;99.90
23116;DHT22;11727;52.134;5.052;2024-03-02T13:41:45;14.10;99.90
23116;DHT22;11727;52.134;5.052;2024-03-02T13:44:18;14.00;99.90
23116;DHT22;11727;52.134;5.052;2024-03-02T13:46:43;13.70;99.90
23116;DHT22;11727;52.134;5.052;2024-03-02T13:49:11;13.50;99.90
23116;DHT22;11727;52.134;5.052;2024-03-02T13:51:37;13.50;99.90
23116;DHT22;11727;52.134;5.052;2024-03-02T13:54:04;13.40;99.90
23116;DHT22;11727;52.134;5.052;2024-03-02T13:56:29;13.40;99.90
23116;DHT22;11727;52.134;5.052;2024-03-02T13:58:55;13.30;99.90
23116;DHT22;11727;52.134;5.052;2024-03-02T14:01:21;13.20;99.90
23116;DHT22;11727;52.134;5.052;2024-03-02T14:03:46;13.10;99.90
23116;DHT22;11727;52.134;5.052;2024-03-02T14:06:12;13.10;99.90
23116;DHT22;11727;52.134;5.052;2024-03-02T14:08:38;13.10;99.90
23116;DHT22;11727;52.134;5.052;2024-03-02T14:11:03;13.20;99.90
23116;DHT22;11727;52.134;5.052;2024-03-02T14:13:29;13.20;99.90
23116;DHT22;11727;52.134;5.052;2024-03-02T14:15:54;13.20;99.90
23116;DHT22;11727;52.134;5.052;2024-03-02T14:18:20;13.30;99.90
23116;DHT22;11727;52.134;5.052;2024-03-02T14:20:46;13.50;99.90
23116;DHT22;11727;52.134;5.052;2024-03-02T14:23:18;13.60;99.90
23116;DHT22;11727;52.134;5.052;2024-03-02T14:25:44;13.70;99.90
23116;DHT22;11727;52.134;5.052;2024-03-02T14:28:10;14.00;99.90
23116;DHT22;11727;52.134;5.052;2024-03-02T14:30:36;13.90;99.90
23116;DHT22;11727;52.134;5.052;2024-03-02T14:33:02;13.90;99.90
23116;DHT22;11727;52.134;5.052;2024-03-02T14:35:28;13.80;99.90
23116;DHT22;11727;52.134;5.052;2024-03-02T14:37:54;13.70;99.90
23116;DHT22;11727;52.134;5.052;2024-03-02T14:40:19;13.80;99.90
23116;DHT22;11727;52.134;5.052;2024-03-02T14:42:47;14.00;99.90
23116;DHT22;11727;52.134;5.052;2024-03-02T14:45:13;14.20;99.90
23116;DHT22;11727;52.134;5.052;2024-03-02T14:47:39;14.20;99.90
23116;DHT22;11727;52.134;5.052;2024-03-02T14:50:05;14.10;99.90
23116;DHT22;11727;52.134;5.052;2024-03-02T14:52:32;13.90;99.90
23116;DHT22;11727;52.134;5.052;2024-03-02T14:54:57;13.80;99.90
23116;DHT22;11727;52.134;5.052;2024-03-02T14:57:23;13.60;99.90
23116;DHT22;11727;52.134;5.052;2024-03-02T14:59:48;13.50;99.90
23116;DHT22;11727;52.134;5.052;2024-03-02T15:02:14;13.30;99.90
23116;DHT22;11727;52.134;5.052;2024-03-02T15:04:39;13.20;99.90
23116;DHT22;11727;52.134;5.052;2024-03-02T15:07:05;13.00;99.90
23116;DHT22;11727;52.134;5.052;2024-03-02T15:09:33;12.90;99.90
23116;DHT22;11727;52.134;5.052;2024-03-02T15:12:00;12.80;99.90
23116;DHT22;11727;52.134;5.052;2024-03-02T15:14:26;12.70;99.90
23116;DHT22;11727;52.134;5.052;2024-03-02T15:16:52;12.70;99.90
23116;DHT22;11727;52.134;5.052;2024-03-02T15:19:17;12.80;99.90
23116;DHT22;11727;52.134;5.052;2024-03-02T15:21:43;12.70;99.90
23116;DHT22;11727;52.134;5.052;2024-03-02T15:24:08;12.80;99.90
23116;DHT22;11727;52.134;5.052;2024-03-02T15:26:34;12.80;99.90
23116;DHT22;11727;52.134;5.052;2024-03-02T15:28:59;12.80;99.90
23116;DHT22;11727;52.134;5.052;2024-03-02T15:31:28;12.80;99.90
23116;DHT22;11727;52.134;5.052;2024-03-02T15:33:53;12.80;99.90
23116;DHT22;11727;52.134;5.052;2024-03-02T15:36:21;12.70;99.90
23116;DHT22;11727;52.134;5.052;2024-03-02T15:38:46;12.70;99.90
23116;DHT22;11727;52.134;5.052;2024-03-02T15:41:12;12.60;99.90
23116;DHT22;11727;52.134;5.052;2024-03-02T15:43:37;12.60;99.90